createdAt,value
2023-01-18T00:00:46.865Z,67.80
2023-01-18T00:03:14.326Z,68.70
2023-01-18T00:05:41.870Z,69.60
2023-01-18T00:08:13.196Z,67.90
2023-01-18T00:10:40.318Z,68.30
2023-01-18T00:13:07.240Z,69.10
2023-01-18T00:15:34.850Z,69.80
2023-01-18T00:18:01.986Z,69.40
2023-01-18T00:20:29.703Z,69.80
2023-01-18T00:22:56.788Z,69.70
2023-01-18T00:25:24.711Z,70.40
2023-01-18T00:27:53.785Z,69.80
2023-01-18T00:30:23.621Z,69.90
2023-01-18T00:32:55.323Z,69.00
2023-01-18T00:35:22.595Z,69.50
2023-01-18T00:37:50.872Z,69.60
2023-01-18T00:40:18.738Z,70.20
2023-01-18T00:43:03.981Z,68.60
2023-01-18T00:45:30.788Z,69.90
2023-01-18T00:47:58.238Z,70.30
2023-01-18T00:50:25.177Z,71.30
2023-01-18T00:52:56.932Z,71.50
2023-01-18T00:55:24.407Z,70.40
2023-01-18T00:57:51.401Z,69.00
2023-01-18T01:00:18.974Z,70.30
2023-01-18T01:02:46.026Z,69.80
2023-01-18T01:05:37.331Z,71.00
2023-01-18T01:08:05.818Z,71.30
2023-01-18T01:10:33.614Z,70.00
2023-01-18T01:13:19.569Z,71.40
2023-01-18T01:16:05.176Z,71.60
2023-01-18T01:18:50.588Z,71.00
2023-01-18T01:21:36.157Z,71.50
2023-01-18T01:24:21.539Z,72.60
2023-01-18T01:26:48.181Z,70.30
2023-01-18T01:29:15.929Z,70.80
2023-01-18T01:31:42.559Z,70.30
2023-01-18T01:34:09.732Z,70.30
2023-01-18T01:36:36.481Z,69.40
2023-01-18T01:39:03.988Z,69.20
2023-01-18T01:41:33.242Z,71.50
2023-01-18T01:44:04.370Z,70.20
2023-01-18T01:46:49.128Z,70.40
2023-01-18T01:49:26.771Z,71.00
2023-01-18T01:52:02.528Z,70.70
2023-01-18T01:54:42.406Z,70.80
2023-01-18T01:57:24.981Z,70.40
2023-01-18T02:00:05.075Z,70.20
2023-01-18T02:02:33.294Z,69.60
2023-01-18T02:05:01.125Z,70.70
2023-01-18T02:07:28.807Z,72.00
2023-01-18T02:09:56.561Z,70.90
2023-01-18T02:12:24.623Z,69.60
2023-01-18T02:14:52.086Z,70.00
2023-01-18T02:17:53.936Z,68.60
2023-01-18T02:20:58.052Z,69.40
2023-01-18T02:23:30.527Z,70.50
2023-01-18T02:26:36.463Z,69.40
2023-01-18T02:29:13.428Z,70.10
2023-01-18T02:32:00.546Z,71.00
2023-01-18T02:34:30.620Z,70.60
2023-01-18T02:37:07.556Z,70.90
2023-01-18T02:39:57.525Z,71.60
2023-01-18T02:42:45.743Z,70.80
2023-01-18T02:46:00.646Z,70.80
2023-01-18T02:48:50.535Z,71.70
2023-01-18T02:51:17.299Z,71.50
2023-01-18T02:53:45.160Z,69.30
2023-01-18T02:56:30.009Z,70.50
2023-01-18T02:59:16.888Z,70.70
2023-01-18T03:01:44.306Z,70.30
2023-01-18T03:04:34.415Z,69.70
2023-01-18T03:07:12.993Z,68.90
2023-01-18T03:09:41.022Z,70.40
2023-01-18T03:12:18.425Z,69.20
2023-01-18T03:14:54.408Z,71.30
2023-01-18T03:17:42.120Z,70.70
2023-01-18T03:20:14.689Z,71.10
2023-01-18T03:23:09.114Z,70.40
2023-01-18T03:25:45.746Z,69.50
2023-01-18T03:28:40.963Z,70.40
2023-01-18T03:31:29.800Z,72.60
2023-01-18T03:34:09.825Z,73.20
2023-01-18T03:36:40.073Z,71.20
2023-01-18T03:39:11.796Z,74.30
2023-01-18T03:41:41.359Z,71.10
2023-01-18T03:44:33.212Z,71.50
2023-01-18T03:47:00.094Z,70.00
2023-01-18T03:49:27.509Z,71.10
2023-01-18T03:52:19.291Z,70.40
2023-01-18T03:54:52.345Z,71.60
2023-01-18T03:57:38.122Z,70.70
2023-01-18T04:00:06.060Z,69.50
2023-01-18T04:02:32.819Z,70.90
2023-01-18T04:05:03.646Z,71.80
2023-01-18T04:07:31.893Z,69.90
2023-01-18T04:09:59.535Z,70.50
2023-01-18T04:12:26.153Z,68.90
2023-01-18T04:14:52.848Z,70.90
2023-01-18T04:17:20.470Z,71.20
2023-01-18T04:19:47.118Z,71.70
2023-01-18T04:22:13.938Z,72.50
2023-01-18T04:24:40.732Z,69.20
2023-01-18T04:27:07.441Z,69.30
2023-01-18T04:29:34.151Z,71.30
2023-01-18T04:32:00.827Z,70.80
2023-01-18T04:34:27.544Z,70.30
2023-01-18T04:36:54.190Z,70.60
2023-01-18T04:39:21.099Z,70.10
2023-01-18T04:41:47.789Z,71.10
2023-01-18T04:44:14.662Z,71.60
2023-01-18T04:46:41.361Z,70.70
2023-01-18T04:49:12.219Z,69.50
2023-01-18T04:51:39.354Z,70.60
2023-01-18T04:54:06.115Z,70.70
2023-01-18T04:56:32.740Z,71.50
2023-01-18T04:58:59.408Z,70.70
2023-01-18T05:01:26.397Z,71.10
2023-01-18T05:03:53.942Z,72.90
2023-01-18T05:06:20.608Z,73.10
2023-01-18T05:08:47.289Z,71.00
2023-01-18T05:11:19.360Z,69.80
2023-01-18T05:13:46.290Z,71.00
2023-01-18T05:16:15.064Z,69.10
2023-01-18T05:18:41.794Z,68.20
2023-01-18T05:21:08.534Z,69.70
2023-01-18T05:23:35.201Z,71.10
2023-01-18T05:26:02.115Z,69.40
2023-01-18T05:28:28.936Z,70.10
2023-01-18T05:30:56.506Z,72.30
2023-01-18T05:33:23.612Z,71.70
2023-01-18T05:35:51.871Z,70.40
2023-01-18T05:38:19.007Z,70.60
2023-01-18T05:40:47.850Z,71.20
2023-01-18T05:43:14.635Z,70.90
2023-01-18T05:45:42.435Z,71.20
2023-01-18T05:48:10.389Z,70.90
2023-01-18T05:50:40.698Z,70.30
2023-01-18T05:53:07.750Z,69.30
2023-01-18T05:55:34.593Z,68.90
2023-01-18T05:58:01.525Z,69.30
2023-01-18T06:00:28.339Z,68.40
2023-01-18T06:02:55.137Z,69.60
2023-01-18T06:05:23.121Z,69.90
2023-01-18T06:07:49.848Z,69.40
2023-01-18T06:10:17.141Z,70.70
2023-01-18T06:12:44.571Z,71.40
2023-01-18T06:15:11.993Z,69.40
2023-01-18T06:17:39.151Z,69.20
2023-01-18T06:20:06.540Z,69.70
2023-01-18T06:22:33.436Z,70.20
2023-01-18T06:25:00.143Z,71.00
2023-01-18T06:27:26.884Z,72.50
2023-01-18T06:29:53.516Z,70.80
2023-01-18T06:32:20.200Z,71.30
2023-01-18T06:34:46.875Z,71.20
2023-01-18T06:37:13.633Z,70.20
2023-01-18T06:39:40.381Z,69.50
2023-01-18T06:42:07.063Z,70.40
2023-01-18T06:44:33.676Z,70.60
2023-01-18T06:47:00.314Z,70.10
2023-01-18T06:49:27.387Z,70.60
2023-01-18T06:51:54.014Z,71.40
2023-01-18T06:54:20.677Z,72.40
2023-01-18T06:56:48.190Z,72.40
2023-01-18T06:59:15.606Z,72.60
2023-01-18T07:01:42.382Z,71.60
2023-01-18T07:04:09.227Z,71.70
2023-01-18T07:06:36.727Z,70.70
2023-01-18T07:09:07.559Z,72.00
2023-01-18T07:11:35.758Z,70.80
2023-01-18T07:14:02.799Z,71.30
2023-01-18T07:16:30.169Z,71.80
2023-01-18T07:18:58.567Z,70.80
2023-01-18T07:21:29.571Z,71.50
2023-01-18T07:23:57.676Z,72.20
2023-01-18T07:26:25.288Z,71.00
2023-01-18T07:28:54.644Z,72.70
2023-01-18T07:31:23.721Z,72.00
2023-01-18T07:33:50.629Z,72.70
2023-01-18T07:36:17.296Z,73.20
2023-01-18T07:38:44.700Z,72.50
2023-01-18T07:41:14.800Z,74.10
2023-01-18T07:43:42.663Z,73.60
2023-01-18T07:46:13.491Z,73.40
2023-01-18T07:48:40.585Z,72.00
2023-01-18T07:51:09.459Z,75.10
2023-01-18T07:53:37.177Z,74.70
2023-01-18T07:56:13.708Z,74.80
2023-01-18T07:58:40.899Z,74.80
2023-01-18T08:01:15.546Z,75.40
2023-01-18T08:03:43.581Z,77.10
2023-01-18T08:06:13.480Z,76.30
2023-01-18T08:08:40.560Z,76.40
2023-01-18T08:11:07.589Z,76.50
2023-01-18T08:13:34.443Z,76.30
2023-01-18T08:16:03.577Z,75.60
2023-01-18T08:18:30.427Z,76.20
2023-01-18T08:20:57.420Z,76.20
2023-01-18T08:23:24.277Z,75.40
2023-01-18T08:25:50.926Z,76.80
2023-01-18T08:28:17.856Z,76.30
2023-01-18T08:30:47.117Z,77.00
2023-01-18T08:33:14.456Z,77.10
2023-01-18T08:35:46.251Z,76.80
2023-01-18T08:38:15.078Z,76.40
2023-01-18T08:40:42.306Z,75.70
2023-01-18T08:43:10.892Z,77.20
2023-01-18T08:45:37.648Z,78.70
2023-01-18T08:48:10.156Z,77.30
2023-01-18T08:50:39.124Z,78.20
2023-01-18T08:53:05.734Z,79.70
2023-01-18T08:55:34.037Z,81.20
2023-01-18T08:58:00.761Z,78.00
2023-01-18T09:00:30.618Z,78.90
2023-01-18T09:02:58.389Z,77.60
2023-01-18T09:05:26.974Z,80.30
2023-01-18T09:07:54.143Z,79.60
2023-01-18T09:10:21.769Z,79.10
2023-01-18T09:12:48.512Z,79.50
2023-01-18T09:15:15.213Z,78.90
2023-01-18T09:17:41.883Z,81.20
2023-01-18T09:20:09.793Z,82.60
2023-01-18T09:22:36.882Z,79.30
2023-01-18T09:25:04.730Z,78.90
2023-01-18T09:27:31.711Z,78.30
2023-01-18T09:29:58.395Z,80.10
2023-01-18T09:32:26.268Z,81.40
2023-01-18T09:34:53.094Z,80.20
2023-01-18T09:37:19.827Z,80.90
2023-01-18T09:39:52.186Z,81.00
2023-01-18T09:42:21.948Z,82.20
2023-01-18T09:44:52.836Z,81.40
2023-01-18T09:47:40.127Z,82.70
2023-01-18T09:50:18.007Z,81.20
2023-01-18T09:53:17.082Z,80.60
2023-01-18T09:55:48.429Z,81.90
2023-01-18T09:58:19.165Z,82.90
2023-01-18T10:00:47.863Z,83.30
2023-01-18T10:03:19.727Z,83.80
2023-01-18T10:06:08.524Z,82.50
2023-01-18T10:08:39.715Z,84.80
2023-01-18T10:11:32.860Z,85.60
2023-01-18T10:14:14.141Z,86.90
2023-01-18T10:16:40.938Z,85.90
2023-01-18T10:19:24.943Z,89.60
2023-01-18T10:22:05.394Z,86.20
2023-01-18T10:24:43.551Z,85.90
2023-01-18T10:27:36.609Z,87.50
2023-01-18T10:30:25.821Z,87.50
2023-01-18T10:32:58.093Z,87.10
2023-01-18T10:35:32.039Z,87.60
2023-01-18T10:38:09.196Z,87.70
2023-01-18T10:40:37.723Z,87.40
2023-01-18T10:43:10.292Z,88.90
2023-01-18T10:45:36.965Z,90.40
2023-01-18T10:48:28.787Z,89.90
2023-01-18T10:50:58.308Z,89.60
2023-01-18T10:53:39.052Z,88.20
2023-01-18T10:56:18.638Z,88.00
2023-01-18T10:58:51.376Z,90.00
2023-01-18T11:01:33.651Z,90.00
2023-01-18T11:04:08.095Z,90.00
2023-01-18T11:06:45.532Z,90.10
2023-01-18T11:09:44.256Z,90.40
2023-01-18T11:12:38.222Z,90.80
2023-01-18T11:15:13.954Z,90.40
2023-01-18T11:17:45.904Z,90.80
2023-01-18T11:20:19.945Z,90.10
2023-01-18T11:22:58.619Z,90.20
2023-01-18T11:25:37.615Z,90.70
2023-01-18T11:28:07.448Z,90.50
2023-01-18T11:30:34.668Z,90.50
2023-01-18T11:33:01.531Z,90.80
2023-01-18T11:35:34.490Z,91.00
2023-01-18T11:38:03.093Z,91.40
2023-01-18T11:40:34.843Z,91.00
2023-01-18T11:43:12.001Z,90.50
2023-01-18T11:45:55.270Z,90.80
2023-01-18T11:48:44.897Z,90.50
2023-01-18T11:51:32.610Z,90.10
2023-01-18T11:54:11.453Z,90.70
2023-01-18T11:56:42.604Z,90.40
2023-01-18T11:59:25.949Z,90.00
2023-01-18T12:02:04.519Z,88.60
2023-01-18T12:04:53.208Z,88.10
2023-01-18T12:07:50.779Z,87.70
2023-01-18T12:10:23.454Z,87.90
2023-01-18T12:13:05.100Z,87.30
2023-01-18T12:15:43.067Z,87.50
2023-01-18T12:18:46.395Z,87.30
2023-01-18T12:21:16.828Z,86.70
2023-01-18T12:23:53.356Z,86.20
2023-01-18T12:26:53.111Z,86.40
2023-01-18T12:29:55.104Z,87.50
2023-01-18T12:32:25.637Z,86.30
2023-01-18T12:35:31.422Z,85.90
2023-01-18T12:38:25.536Z,86.80
2023-01-18T12:41:19.690Z,84.50
2023-01-18T12:43:49.300Z,85.20
2023-01-18T12:46:33.689Z,85.60
2023-01-18T12:49:04.449Z,84.40
2023-01-18T12:51:35.342Z,85.00
2023-01-18T12:54:25.338Z,83.50
2023-01-18T12:56:54.849Z,85.60
2023-01-18T12:59:28.774Z,84.90
2023-01-18T13:02:00.435Z,85.10
2023-01-18T13:04:35.133Z,84.20
2023-01-18T13:07:07.193Z,84.70
2023-01-18T13:09:39.483Z,83.60
2023-01-18T13:12:06.946Z,84.40
2023-01-18T13:14:51.226Z,85.10
2023-01-18T13:17:27.456Z,85.00
2023-01-18T13:20:17.663Z,86.70
2023-01-18T13:23:01.801Z,84.90
2023-01-18T13:25:49.576Z,85.30
2023-01-18T13:28:23.347Z,85.70
2023-01-18T13:30:56.954Z,85.40
2023-01-18T13:33:28.533Z,84.40
2023-01-18T13:35:57.871Z,83.30
2023-01-18T13:38:40.485Z,84.00
2023-01-18T13:41:11.468Z,83.60
2023-01-18T13:43:38.142Z,82.40
2023-01-18T13:46:07.940Z,83.60
2023-01-18T13:49:36.625Z,84.20
2023-01-18T13:52:35.716Z,82.50
2023-01-18T13:55:07.653Z,81.80
2023-01-18T13:57:35.301Z,83.40
2023-01-18T14:00:02.656Z,84.40
2023-01-18T14:02:41.878Z,83.20
2023-01-18T14:05:26.681Z,81.80
2023-01-18T14:07:57.092Z,82.60
2023-01-18T14:10:31.519Z,85.00
2023-01-18T14:13:00.251Z,82.50
2023-01-18T14:15:39.950Z,83.20
2023-01-18T14:18:26.246Z,86.10
2023-01-18T14:21:20.426Z,84.90
2023-01-18T14:24:24.952Z,84.00
2023-01-18T14:26:54.290Z,83.20
2023-01-18T14:29:39.660Z,84.60
2023-01-18T14:32:08.088Z,82.60
2023-01-18T14:34:40.222Z,82.50
2023-01-18T14:37:27.682Z,83.20
2023-01-18T14:40:13.182Z,82.60
2023-01-18T14:42:46.700Z,82.80
2023-01-18T14:45:21.256Z,80.70
2023-01-18T14:47:48.176Z,81.20
2023-01-18T14:50:20.487Z,81.50
2023-01-18T14:52:48.988Z,83.80
2023-01-18T14:55:32.580Z,80.90
2023-01-18T14:58:08.299Z,82.20
2023-01-18T15:00:45.924Z,82.30
2023-01-18T15:03:14.596Z,80.10
2023-01-18T15:05:42.046Z,80.80
2023-01-18T15:08:11.450Z,79.90
2023-01-18T15:10:39.209Z,80.90
2023-01-18T15:13:06.561Z,82.10
2023-01-18T15:15:39.978Z,80.90
2023-01-18T15:18:14.251Z,80.70
2023-01-18T15:20:58.950Z,81.40
2023-01-18T15:23:26.698Z,80.80
2023-01-18T15:25:54.047Z,81.00
2023-01-18T15:28:24.364Z,81.50
2023-01-18T15:30:59.013Z,81.30
2023-01-18T15:33:27.111Z,81.40
2023-01-18T15:36:01.142Z,80.70
2023-01-18T15:38:28.043Z,80.80
2023-01-18T15:41:11.078Z,81.10
2023-01-18T15:43:42.031Z,82.00
2023-01-18T15:46:10.946Z,80.00
2023-01-18T15:48:47.860Z,80.20
2023-01-18T15:51:14.720Z,80.00
2023-01-18T15:53:49.522Z,80.10
2023-01-18T15:56:23.616Z,80.40
2023-01-18T15:58:55.645Z,80.40
2023-01-18T16:01:31.908Z,79.80
2023-01-18T16:04:09.191Z,80.10
2023-01-18T16:06:37.487Z,79.20
2023-01-18T16:09:12.060Z,79.60
2023-01-18T16:11:46.285Z,79.60
2023-01-18T16:14:31.405Z,79.60
2023-01-18T16:17:11.533Z,79.90
2023-01-18T16:19:46.021Z,80.00
2023-01-18T16:22:24.689Z,79.50
2023-01-18T16:24:58.340Z,80.50
2023-01-18T16:27:27.259Z,81.40
2023-01-18T16:29:59.708Z,80.80
2023-01-18T16:32:28.917Z,81.20
2023-01-18T16:35:10.011Z,81.70
2023-01-18T16:37:38.804Z,80.60
2023-01-18T16:40:09.497Z,81.10
2023-01-18T16:43:03.189Z,80.90
2023-01-18T16:45:31.566Z,81.10
2023-01-18T16:47:58.723Z,80.00
2023-01-18T16:50:25.604Z,81.00
2023-01-18T16:52:52.278Z,80.50
2023-01-18T16:55:19.064Z,81.80
2023-01-18T16:57:46.130Z,80.70
2023-01-18T17:00:22.353Z,81.00
2023-01-18T17:02:49.202Z,80.30
2023-01-18T17:05:17.909Z,78.60
2023-01-18T17:07:45.159Z,79.00
2023-01-18T17:10:38.183Z,77.80
2023-01-18T17:13:05.262Z,77.40
2023-01-18T17:15:34.563Z,78.80
2023-01-18T17:18:02.181Z,79.10
2023-01-18T17:20:29.658Z,77.90
2023-01-18T17:22:56.581Z,77.80
2023-01-18T17:25:24.125Z,77.30
2023-01-18T17:27:51.354Z,76.60
2023-01-18T17:30:21.542Z,77.00
2023-01-18T17:32:48.843Z,75.50
2023-01-18T17:35:17.683Z,75.60
2023-01-18T17:37:44.507Z,76.60
2023-01-18T17:40:19.554Z,75.00
2023-01-18T17:42:46.998Z,75.60
2023-01-18T17:45:14.435Z,75.60
2023-01-18T17:47:42.972Z,73.80
2023-01-18T17:50:12.225Z,73.80
2023-01-18T17:52:39.989Z,72.80
2023-01-18T17:55:07.904Z,73.30
2023-01-18T17:57:34.797Z,72.90
2023-01-18T18:00:01.599Z,72.90
2023-01-18T18:02:28.306Z,72.20
2023-01-18T18:04:54.997Z,71.90
2023-01-18T18:07:21.720Z,71.10
2023-01-18T18:09:48.348Z,70.30
2023-01-18T18:12:14.991Z,70.80
2023-01-18T18:14:41.716Z,68.90
2023-01-18T18:17:08.677Z,68.70
2023-01-18T18:19:35.449Z,67.90
2023-01-18T18:22:02.125Z,68.40
2023-01-18T18:24:28.774Z,67.70
2023-01-18T18:26:55.391Z,66.50
2023-01-18T18:29:22.164Z,65.10
2023-01-18T18:31:48.836Z,65.60
2023-01-18T18:36:42.607Z,63.50
2023-01-18T18:39:09.527Z,65.50
2023-01-18T18:41:36.190Z,65.50
2023-01-18T18:44:05.767Z,65.00
2023-01-18T18:46:32.676Z,67.00
2023-01-18T18:48:59.355Z,65.90
2023-01-18T18:51:26.072Z,65.80
2023-01-18T18:53:59.700Z,67.20
2023-01-18T18:56:28.514Z,65.80
2023-01-18T18:58:55.146Z,66.30
2023-01-18T19:01:24.053Z,67.50
2023-01-18T19:03:52.343Z,65.80
2023-01-18T19:06:20.348Z,66.40
2023-01-18T19:08:47.369Z,66.00
2023-01-18T19:11:15.550Z,61.80
2023-01-18T19:13:43.199Z,62.20
2023-01-18T19:16:10.452Z,62.00
2023-01-18T19:18:37.174Z,63.80
2023-01-18T19:21:04.391Z,64.60
2023-01-18T19:23:31.132Z,63.60
2023-01-18T19:25:58.748Z,63.00
2023-01-18T19:28:25.359Z,61.90
2023-01-18T19:30:52.003Z,62.20
2023-01-18T19:33:18.667Z,61.20
2023-01-18T19:35:46.278Z,61.80
2023-01-18T19:38:13.660Z,61.50
2023-01-18T19:40:40.334Z,61.10
2023-01-18T19:43:09.221Z,62.90
2023-01-18T19:45:37.636Z,63.80
2023-01-18T19:48:05.089Z,62.90
2023-01-18T19:50:32.066Z,62.30
2023-01-18T19:52:59.417Z,62.00
2023-01-18T19:55:35.514Z,60.80
2023-01-18T19:58:04.782Z,62.70
2023-01-18T20:00:31.453Z,62.30
2023-01-18T20:02:59.827Z,61.70
2023-01-18T20:05:27.418Z,62.70
2023-01-18T20:07:54.103Z,63.90
2023-01-18T20:10:20.951Z,63.80
2023-01-18T20:12:48.766Z,62.60
2023-01-18T20:15:17.210Z,61.10
2023-01-18T20:17:43.911Z,63.60
2023-01-18T20:20:14.219Z,62.80
2023-01-18T20:22:46.256Z,62.90
2023-01-18T20:25:12.981Z,62.70
2023-01-18T20:27:39.613Z,62.60
2023-01-18T20:30:06.863Z,64.00
2023-01-18T20:32:33.632Z,61.90
2023-01-18T20:35:00.391Z,61.00
2023-01-18T20:37:26.999Z,62.20
2023-01-18T20:39:56.340Z,60.40
2023-01-18T20:42:22.989Z,60.50
2023-01-18T20:44:53.492Z,59.60
2023-01-18T20:47:20.345Z,59.60
2023-01-18T20:49:47.079Z,59.00
2023-01-18T20:52:14.083Z,61.80
2023-01-18T20:54:40.834Z,62.20
2023-01-18T20:57:07.576Z,61.10
2023-01-18T20:59:34.442Z,62.80
2023-01-18T21:02:01.905Z,62.70
2023-01-18T21:04:28.705Z,62.60
2023-01-18T21:06:57.166Z,61.90
2023-01-18T21:09:40.708Z,59.00
2023-01-18T21:12:07.497Z,59.30
2023-01-18T21:14:34.221Z,62.10
2023-01-18T21:17:00.878Z,59.30
2023-01-18T21:19:27.590Z,61.60
2023-01-18T21:21:54.235Z,60.40
2023-01-18T21:24:21.076Z,60.50
2023-01-18T21:26:47.723Z,64.90
2023-01-18T21:29:14.439Z,63.70
2023-01-18T21:31:41.233Z,61.20
2023-01-18T21:34:08.010Z,63.20
2023-01-18T21:36:35.098Z,63.30
2023-01-18T21:39:01.839Z,61.20
2023-01-18T21:41:47.585Z,60.00
2023-01-18T21:44:33.005Z,62.50
2023-01-18T21:46:59.717Z,60.70
2023-01-18T21:50:15.445Z,61.40
2023-01-18T21:52:49.970Z,59.90
2023-01-18T21:55:17.171Z,61.00
2023-01-18T21:57:43.872Z,60.50
2023-01-18T22:00:11.193Z,61.80
2023-01-18T22:02:38.301Z,61.60
2023-01-18T22:05:05.353Z,64.60
2023-01-18T22:07:34.158Z,64.80
2023-01-18T22:10:06.958Z,63.30
2023-01-18T22:12:35.561Z,63.80
2023-01-18T22:15:04.274Z,61.40
2023-01-18T22:17:31.068Z,60.00
2023-01-18T22:19:57.819Z,63.10
2023-01-18T22:22:24.566Z,60.00
2023-01-18T22:24:51.379Z,63.00
2023-01-18T22:27:18.080Z,63.10
2023-01-18T22:29:44.721Z,65.30
2023-01-18T22:32:11.372Z,62.50
2023-01-18T22:34:37.998Z,61.60
2023-01-18T22:37:05.644Z,63.90
2023-01-18T22:39:32.315Z,64.90
2023-01-18T22:41:58.951Z,65.40
2023-01-18T22:44:25.573Z,63.90
2023-01-18T22:46:52.230Z,65.70
2023-01-18T22:49:18.961Z,62.60
2023-01-18T22:51:45.627Z,65.30
2023-01-18T22:54:12.269Z,63.70
2023-01-18T22:56:38.966Z,60.90
2023-01-18T22:59:05.881Z,59.40
2023-01-18T23:01:33.122Z,58.60
2023-01-18T23:04:01.905Z,58.80
2023-01-18T23:06:33.719Z,58.80
2023-01-18T23:09:00.337Z,58.90
2023-01-18T23:11:29.523Z,58.30
2023-01-18T23:14:16.747Z,57.00
2023-01-18T23:17:02.503Z,57.30
2023-01-18T23:19:30.603Z,57.20
2023-01-18T23:21:57.559Z,57.60
2023-01-18T23:24:24.303Z,58.20
2023-01-18T23:26:51.590Z,56.90
2023-01-18T23:29:18.417Z,55.40
2023-01-18T23:31:45.570Z,55.10
2023-01-18T23:34:12.268Z,55.60
2023-01-18T23:36:38.977Z,54.60
2023-01-18T23:39:24.341Z,54.70
2023-01-18T23:42:09.781Z,57.50
2023-01-18T23:44:55.136Z,56.00
2023-01-18T23:47:40.539Z,55.80
2023-01-18T23:50:26.045Z,54.60
2023-01-18T23:53:11.489Z,55.40
2023-01-18T23:55:38.122Z,55.70
2023-01-18T23:58:04.810Z,53.70
